createdAt,value
2019-03-28T00:00:27.722Z,103544.64
2019-03-28T00:01:28.266Z,103544.14
2019-03-28T00:02:28.805Z,103543.11
2019-03-28T00:03:29.222Z,103542.84
2019-03-28T00:04:30.000Z,103542.25
2019-03-28T00:05:30.384Z,103542.33
2019-03-28T00:06:30.827Z,103541.95
2019-03-28T00:07:31.238Z,103541.70
2019-03-28T00:08:31.600Z,103541.77
2019-03-28T00:09:32.014Z,103542.00
2019-03-28T00:10:32.361Z,103541.58
2019-03-28T00:11:32.691Z,103541.44
2019-03-28T00:12:33.169Z,103541.19
2019-03-28T00:13:33.508Z,103541.32
2019-03-28T00:14:34.180Z,103541.20
2019-03-28T00:15:34.631Z,103540.91
2019-03-28T00:16:35.076Z,103540.27
2019-03-28T00:17:35.552Z,103540.18
2019-03-28T00:18:36.027Z,103539.22
2019-03-28T00:19:36.356Z,103539.02
2019-03-28T00:20:36.916Z,103537.99
2019-03-28T00:21:37.447Z,103537.49
2019-03-28T00:22:37.816Z,103537.39
2019-03-28T00:23:38.117Z,103536.30
2019-03-28T00:24:38.832Z,103536.19
2019-03-28T00:25:39.277Z,103535.42
2019-03-28T00:26:39.806Z,103534.26
2019-03-28T00:26:49.325Z,103521.67
2019-03-28T00:27:50.768Z,103521.11
2019-03-28T00:28:51.072Z,103520.44
2019-03-28T00:29:51.567Z,103521.11
2019-03-28T00:30:51.926Z,103521.24
2019-03-28T00:31:52.731Z,103520.64
2019-03-28T00:32:53.063Z,103520.78
2019-03-28T00:33:53.416Z,103521.02
2019-03-28T00:34:53.779Z,103520.89
2019-03-28T00:35:54.389Z,103520.94
2019-03-28T00:36:54.753Z,103520.94
2019-03-28T00:37:55.415Z,103521.14
2019-03-28T00:38:55.895Z,103521.19
2019-03-28T00:39:56.576Z,103521.76
2019-03-28T00:40:56.835Z,103522.20
2019-03-28T00:41:57.271Z,103523.27
2019-03-28T00:42:57.607Z,103523.98
2019-03-28T00:43:58.102Z,103524.69
2019-03-28T00:44:58.634Z,103524.73
2019-03-28T00:45:58.996Z,103525.04
2019-03-28T00:46:59.592Z,103525.41
2019-03-28T00:48:00.092Z,103525.14
2019-03-28T00:49:00.621Z,103524.81
2019-03-28T00:50:01.087Z,103524.05
2019-03-28T00:51:01.556Z,103524.02
2019-03-28T00:52:02.178Z,103523.25
2019-03-28T00:53:02.823Z,103522.31
2019-03-28T00:54:03.109Z,103521.95
2019-03-28T00:55:03.544Z,103521.45
2019-03-28T00:56:03.818Z,103520.92
2019-03-28T00:57:04.302Z,103520.92
2019-03-28T00:58:04.742Z,103520.98
2019-03-28T00:59:05.169Z,103520.56
2019-03-28T01:00:05.501Z,103519.86
2019-03-28T01:01:05.943Z,103519.40
2019-03-28T01:02:06.433Z,103518.80
2019-03-28T01:03:06.971Z,103517.94
2019-03-28T01:04:07.273Z,103517.14
2019-03-28T01:05:07.611Z,103516.34
2019-03-28T01:06:08.026Z,103515.85
2019-03-28T01:07:08.308Z,103514.89
2019-03-28T01:08:08.657Z,103514.09
2019-03-28T01:09:09.110Z,103513.80
2019-03-28T01:10:09.499Z,103512.86
2019-03-28T01:11:10.135Z,103511.83
2019-03-28T01:11:18.661Z,103501.36
2019-03-28T01:12:19.953Z,103501.13
2019-03-28T01:13:20.466Z,103501.13
2019-03-28T01:14:20.893Z,103500.92
2019-03-28T01:15:21.136Z,103500.77
2019-03-28T01:16:21.461Z,103500.50
2019-03-28T01:17:21.740Z,103500.80
2019-03-28T01:18:22.375Z,103500.97
2019-03-28T01:19:22.772Z,103500.70
2019-03-28T01:20:23.189Z,103500.27
2019-03-28T01:21:23.512Z,103500.27
2019-03-28T01:22:23.898Z,103499.87
2019-03-28T01:23:24.238Z,103499.50
2019-03-28T01:24:24.586Z,103499.06
2019-03-28T01:25:24.840Z,103499.00
2019-03-28T01:26:25.231Z,103499.23
2019-03-28T01:27:25.701Z,103499.14
2019-03-28T01:28:26.044Z,103499.00
2019-03-28T01:29:26.361Z,103498.77
2019-03-28T01:30:26.650Z,103498.74
2019-03-28T01:31:27.096Z,103498.81
2019-03-28T01:32:28.244Z,103498.98
2019-03-28T01:33:26.871Z,103499.64
2019-03-28T01:34:28.217Z,103499.38
2019-03-28T01:35:28.545Z,103499.21
2019-03-28T01:36:28.871Z,103499.14
2019-03-28T01:37:29.539Z,103498.88
2019-03-28T01:38:29.990Z,103498.70
2019-03-28T01:39:30.315Z,103498.38
2019-03-28T01:40:30.987Z,103498.14
2019-03-28T01:41:31.463Z,103498.11
2019-03-28T01:42:31.711Z,103497.78
2019-03-28T01:43:32.062Z,103497.81
2019-03-28T01:44:31.334Z,103497.81
2019-03-28T01:45:33.261Z,103497.19
2019-03-28T01:46:32.265Z,103497.48
2019-03-28T01:47:33.600Z,103497.29
2019-03-28T01:48:33.988Z,103497.52
2019-03-28T01:49:34.430Z,103498.09
2019-03-28T01:50:34.892Z,103498.30
2019-03-28T01:51:35.399Z,103498.94
2019-03-28T01:52:35.750Z,103499.14
2019-03-28T01:53:36.076Z,103498.94
2019-03-28T01:54:36.922Z,103499.25
2019-03-28T01:55:37.461Z,103499.02
2019-03-28T01:56:37.928Z,103498.78
2019-03-28T01:57:38.350Z,103499.09
2019-03-28T01:57:46.870Z,103499.02
2019-03-28T01:58:48.190Z,103498.75
2019-03-28T01:59:48.634Z,103499.19
2019-03-28T02:00:49.029Z,103499.09
2019-03-28T02:01:49.419Z,103499.42
2019-03-28T02:02:50.085Z,103499.42
2019-03-28T02:03:50.391Z,103499.19
2019-03-28T02:04:50.827Z,103499.12
2019-03-28T02:05:51.656Z,103498.72
2019-03-28T02:06:52.056Z,103498.31
2019-03-28T02:07:52.392Z,103498.09
2019-03-28T02:08:52.943Z,103498.28
2019-03-28T02:09:53.397Z,103498.55
2019-03-28T02:10:53.748Z,103498.05
2019-03-28T02:11:54.144Z,103498.28
2019-03-28T02:12:54.410Z,103498.28
2019-03-28T02:13:54.819Z,103498.05
2019-03-28T02:14:55.142Z,103497.72
2019-03-28T02:15:55.619Z,103497.22
2019-03-28T02:16:55.987Z,103497.65
2019-03-28T02:17:56.482Z,103496.72
2019-03-28T02:18:56.790Z,103496.88
2019-03-28T02:19:57.189Z,103497.05
2019-03-28T02:20:57.546Z,103497.45
2019-03-28T02:21:57.916Z,103497.62
2019-03-28T02:22:58.636Z,103497.69
2019-03-28T02:23:58.952Z,103497.98
2019-03-28T02:24:59.414Z,103498.48
2019-03-28T02:25:59.993Z,103498.78
2019-03-28T02:27:00.656Z,103499.29
2019-03-28T02:28:01.025Z,103499.02
2019-03-28T02:29:01.343Z,103499.42
2019-03-28T02:30:01.754Z,103499.82
2019-03-28T02:31:00.758Z,103499.66
2019-03-28T02:32:02.292Z,103499.99
2019-03-28T02:33:01.724Z,103500.33
2019-03-28T02:34:03.350Z,103500.49
2019-03-28T02:35:03.817Z,103499.95
2019-03-28T02:36:04.427Z,103499.69
2019-03-28T02:37:04.785Z,103499.36
2019-03-28T02:38:05.308Z,103499.16
2019-03-28T02:39:04.883Z,103499.16
2019-03-28T02:40:06.404Z,103499.06
2019-03-28T02:41:06.923Z,103498.89
2019-03-28T02:42:07.585Z,103498.99
2019-03-28T02:43:07.938Z,103499.26
2019-03-28T02:43:16.977Z,103501.83
2019-03-28T02:44:18.387Z,103501.06
2019-03-28T02:45:17.624Z,103501.30
2019-03-28T02:46:18.930Z,103501.39
2019-03-28T02:47:19.288Z,103501.49
2019-03-28T02:48:19.669Z,103501.06
2019-03-28T02:49:20.147Z,103500.33
2019-03-28T02:50:19.374Z,103500.66
2019-03-28T02:51:20.800Z,103500.56
2019-03-28T02:52:20.073Z,103500.23
2019-03-28T02:53:20.573Z,103500.23
2019-03-28T02:54:21.996Z,103499.79
2019-03-28T02:55:23.622Z,103500.23
2019-03-28T02:56:21.377Z,103500.02
2019-03-28T02:57:22.719Z,103500.09
2019-03-28T02:58:23.524Z,103499.66
2019-03-28T02:59:23.780Z,103499.95
2019-03-28T03:00:24.181Z,103500.13
2019-03-28T03:01:24.609Z,103500.36
2019-03-28T03:02:25.060Z,103501.59
2019-03-28T03:03:25.468Z,103501.83
2019-03-28T03:04:25.613Z,103502.30
2019-03-28T03:05:26.029Z,103502.97
2019-03-28T03:06:26.496Z,103503.20
2019-03-28T03:07:26.876Z,103503.44
2019-03-28T03:08:27.386Z,103503.83
2019-03-28T03:09:26.550Z,103504.47
2019-03-28T03:10:26.797Z,103504.80
2019-03-28T03:11:28.421Z,103505.20
2019-03-28T03:12:28.980Z,103505.00
2019-03-28T03:13:29.226Z,103505.77
2019-03-28T03:14:29.636Z,103506.23
2019-03-28T03:15:30.309Z,103506.38
2019-03-28T03:16:29.299Z,103506.94
2019-03-28T03:17:30.577Z,103506.80
2019-03-28T03:18:30.861Z,103506.80
2019-03-28T03:19:31.154Z,103506.84
2019-03-28T03:20:31.518Z,103506.04
2019-03-28T03:21:31.886Z,103506.11
2019-03-28T03:22:32.235Z,103505.41
2019-03-28T03:23:32.510Z,103505.20
2019-03-28T03:24:32.823Z,103504.07
2019-03-28T03:25:33.087Z,103503.97
2019-03-28T03:26:33.475Z,103503.17
2019-03-28T03:27:32.903Z,103502.80
2019-03-28T03:28:34.255Z,103502.53
2019-03-28T03:29:33.607Z,103501.70
2019-03-28T03:30:34.987Z,103501.59
2019-03-28T03:31:35.285Z,103500.83
2019-03-28T03:32:34.615Z,103500.70
2019-03-28T03:33:37.717Z,103500.93
2019-03-28T03:34:35.533Z,103500.90
2019-03-28T03:35:37.017Z,103501.03
2019-03-28T03:36:36.441Z,103501.70
2019-03-28T03:36:45.990Z,103505.56
2019-03-28T03:37:47.485Z,103505.63
2019-03-28T03:38:48.060Z,103505.80
2019-03-28T03:39:47.407Z,103506.20
2019-03-28T03:40:48.829Z,103507.20
2019-03-28T03:41:49.150Z,103507.63
2019-03-28T03:42:49.788Z,103508.36
2019-03-28T03:43:50.151Z,103508.94
2019-03-28T03:44:50.479Z,103509.17
2019-03-28T03:45:50.817Z,103509.94
2019-03-28T03:46:51.103Z,103510.23
2019-03-28T03:47:51.577Z,103510.90
2019-03-28T03:48:51.856Z,103511.70
2019-03-28T03:49:52.174Z,103512.44
2019-03-28T03:50:52.584Z,103513.43
2019-03-28T03:51:53.363Z,103513.87
2019-03-28T03:52:54.095Z,103515.03
2019-03-28T03:53:54.363Z,103516.00
2019-03-28T03:54:54.686Z,103516.66
2019-03-28T03:55:55.068Z,103517.20
2019-03-28T03:56:55.677Z,103518.10
2019-03-28T03:58:13.814Z,103519.59
2019-03-28T03:58:55.566Z,103520.16
2019-03-28T03:59:56.988Z,103521.27
2019-03-28T04:00:57.335Z,103522.00
2019-03-28T04:01:57.681Z,103523.00
2019-03-28T04:02:58.015Z,103524.00
2019-03-28T04:03:58.333Z,103525.44
2019-03-28T04:04:58.682Z,103526.44
2019-03-28T04:05:57.978Z,103527.27
2019-03-28T04:06:59.484Z,103528.10
2019-03-28T04:08:00.293Z,103528.23
2019-03-28T04:08:59.232Z,103528.73
2019-03-28T04:10:00.720Z,103528.77
2019-03-28T04:11:00.033Z,103529.53
2019-03-28T04:12:01.493Z,103529.94
2019-03-28T04:13:01.976Z,103530.06
2019-03-28T04:14:02.699Z,103530.06
2019-03-28T04:15:01.735Z,103530.56
2019-03-28T04:16:02.109Z,103531.06
2019-03-28T04:17:03.490Z,103531.73
2019-03-28T04:18:03.817Z,103532.30
2019-03-28T04:19:04.285Z,103532.27
2019-03-28T04:20:03.814Z,103532.66
2019-03-28T04:21:05.586Z,103533.23
2019-03-28T04:22:04.912Z,103534.13
2019-03-28T04:23:06.234Z,103534.13
2019-03-28T04:24:06.565Z,103534.63
2019-03-28T04:25:06.838Z,103535.13
2019-03-28T04:26:07.182Z,103535.96
2019-03-28T04:26:18.704Z,103553.38
2019-03-28T04:27:20.990Z,103552.62
2019-03-28T04:28:31.376Z,103552.78
2019-03-28T04:29:19.826Z,103552.78
2019-03-28T04:30:22.605Z,103551.95
2019-03-28T04:31:20.705Z,103551.72
2019-03-28T04:32:22.105Z,103551.12
2019-03-28T04:33:22.421Z,103550.02
2019-03-28T04:34:22.899Z,103549.61
2019-03-28T04:35:23.194Z,103549.05
2019-03-28T04:36:23.733Z,103548.55
2019-03-28T04:37:24.098Z,103548.41
2019-03-28T04:38:24.827Z,103547.48
2019-03-28T04:39:23.831Z,103547.62
2019-03-28T04:40:25.080Z,103547.28
2019-03-28T04:41:25.532Z,103546.78
2019-03-28T04:42:25.810Z,103546.92
2019-03-28T04:43:26.182Z,103546.75
2019-03-28T04:44:26.550Z,103546.95
2019-03-28T04:45:26.957Z,103546.89
2019-03-28T04:46:27.309Z,103546.48
2019-03-28T04:47:27.638Z,103546.33
2019-03-28T04:48:28.118Z,103546.33
2019-03-28T04:49:28.743Z,103546.42
2019-03-28T04:50:29.191Z,103546.45
2019-03-28T04:51:29.470Z,103547.02
2019-03-28T04:52:31.920Z,103547.02
2019-03-28T04:53:29.702Z,103548.06
2019-03-28T04:54:29.528Z,103548.56
2019-03-28T04:55:29.960Z,103548.63
2019-03-28T04:56:31.428Z,103548.86
2019-03-28T04:57:31.789Z,103549.96
2019-03-28T04:58:43.716Z,103550.80
2019-03-28T04:59:31.413Z,103551.63
2019-03-28T05:00:33.332Z,103552.13
2019-03-28T05:01:31.974Z,103552.53
2019-03-28T05:02:33.313Z,103553.42
2019-03-28T05:03:33.639Z,103554.59
2019-03-28T05:04:34.022Z,103555.16
2019-03-28T05:05:34.446Z,103556.43
2019-03-28T05:06:37.752Z,103557.06
2019-03-28T05:07:34.277Z,103557.83
2019-03-28T05:08:35.673Z,103559.06
2019-03-28T05:09:34.945Z,103559.80
2019-03-28T05:10:36.274Z,103560.36
2019-03-28T05:11:36.759Z,103560.96
2019-03-28T05:12:37.069Z,103561.20
2019-03-28T05:13:37.518Z,103562.30
2019-03-28T05:14:37.958Z,103562.86
2019-03-28T05:15:38.604Z,103563.27
2019-03-28T05:16:39.134Z,103563.66
2019-03-28T05:17:40.449Z,103564.50
2019-03-28T05:18:38.920Z,103564.83
2019-03-28T05:18:47.494Z,103577.25
2019-03-28T05:19:48.804Z,103576.52
2019-03-28T05:20:49.245Z,103576.69
2019-03-28T05:21:49.617Z,103576.58
2019-03-28T05:22:49.859Z,103576.58
2019-03-28T05:23:50.157Z,103576.69
2019-03-28T05:24:50.625Z,103576.78
2019-03-28T05:25:50.963Z,103576.62
2019-03-28T05:26:51.280Z,103576.89
2019-03-28T05:27:51.567Z,103577.66
2019-03-28T05:28:57.515Z,103578.09
2019-03-28T05:29:51.290Z,103579.03
2019-03-28T05:30:51.535Z,103579.30
2019-03-28T05:31:52.844Z,103579.89
2019-03-28T05:32:53.196Z,103580.33
2019-03-28T05:33:53.527Z,103580.62
2019-03-28T05:34:53.879Z,103581.40
2019-03-28T05:35:54.603Z,103582.16
2019-03-28T05:36:55.073Z,103582.80
2019-03-28T05:37:55.468Z,103583.23
2019-03-28T05:38:55.757Z,103583.23
2019-03-28T05:39:56.584Z,103583.77
2019-03-28T05:40:57.327Z,103583.77
2019-03-28T05:41:57.682Z,103584.00
2019-03-28T05:42:57.979Z,103585.14
2019-03-28T05:43:58.281Z,103585.87
2019-03-28T05:44:58.676Z,103586.64
2019-03-28T05:45:58.962Z,103587.14
2019-03-28T05:46:59.377Z,103587.75
2019-03-28T05:48:00.451Z,103588.25
2019-03-28T05:48:59.037Z,103589.34
2019-03-28T05:50:00.509Z,103589.95
2019-03-28T05:50:59.637Z,103590.34
2019-03-28T05:52:00.932Z,103590.72
2019-03-28T05:53:01.512Z,103591.38
2019-03-28T05:54:01.816Z,103592.25
2019-03-28T05:55:05.209Z,103592.75
2019-03-28T05:56:01.724Z,103593.63
2019-03-28T05:57:03.055Z,103594.12
2019-03-28T05:58:03.336Z,103594.72
2019-03-28T05:59:10.704Z,103595.03
2019-03-28T06:00:02.870Z,103595.56
2019-03-28T06:01:04.140Z,103595.76
2019-03-28T06:02:04.357Z,103596.09
2019-03-28T06:03:04.751Z,103596.56
2019-03-28T06:04:05.129Z,103597.09
2019-03-28T06:05:05.395Z,103597.70
2019-03-28T06:06:05.888Z,103598.47
2019-03-28T06:06:14.917Z,103608.95
2019-03-28T06:07:16.310Z,103608.63
2019-03-28T06:08:15.874Z,103608.39
2019-03-28T06:09:17.562Z,103608.22
2019-03-28T06:10:18.120Z,103608.09
2019-03-28T06:11:18.473Z,103608.36
2019-03-28T06:12:19.305Z,103608.45
2019-03-28T06:13:18.064Z,103609.42
2019-03-28T06:14:19.353Z,103609.80
2019-03-28T06:15:19.663Z,103610.23
2019-03-28T06:16:20.001Z,103610.59
2019-03-28T06:17:19.239Z,103610.70
2019-03-28T06:18:20.587Z,103611.47
2019-03-28T06:19:20.951Z,103612.17
2019-03-28T06:20:21.360Z,103612.67
2019-03-28T06:21:21.856Z,103613.70
2019-03-28T06:22:22.502Z,103614.57
2019-03-28T06:23:23.098Z,103614.80
2019-03-28T06:24:23.604Z,103614.50
2019-03-28T06:25:23.715Z,103615.20
2019-03-28T06:26:24.123Z,103615.34
2019-03-28T06:27:24.488Z,103615.77
2019-03-28T06:28:25.411Z,103616.14
2019-03-28T06:29:25.740Z,103616.51
2019-03-28T06:30:24.663Z,103617.14
2019-03-28T06:31:26.177Z,103617.48
2019-03-28T06:32:26.599Z,103617.68
2019-03-28T06:33:26.912Z,103618.55
2019-03-28T06:34:27.334Z,103619.31
2019-03-28T06:35:27.690Z,103619.28
2019-03-28T06:36:28.051Z,103619.65
2019-03-28T06:37:28.492Z,103619.62
2019-03-28T06:38:28.972Z,103619.48
2019-03-28T06:39:29.253Z,103619.72
2019-03-28T06:40:29.546Z,103619.91
2019-03-28T06:41:29.912Z,103620.05
2019-03-28T06:42:30.199Z,103619.85
2019-03-28T06:43:30.498Z,103619.75
2019-03-28T06:44:30.817Z,103620.25
2019-03-28T06:45:30.297Z,103619.84
2019-03-28T06:46:31.804Z,103619.75
2019-03-28T06:47:32.223Z,103620.05
2019-03-28T06:48:32.493Z,103620.17
2019-03-28T06:49:32.935Z,103620.08
2019-03-28T06:50:33.283Z,103619.48
2019-03-28T06:51:33.323Z,103619.20
2019-03-28T06:52:33.666Z,103618.94
2019-03-28T06:53:33.998Z,103618.40
2019-03-28T06:54:34.300Z,103617.86
2019-03-28T06:54:42.826Z,103607.90
2019-03-28T06:55:44.445Z,103607.30
2019-03-28T06:56:44.695Z,103607.47
2019-03-28T06:57:45.257Z,103606.83
2019-03-28T06:58:45.728Z,103607.19
2019-03-28T06:59:46.047Z,103607.13
2019-03-28T07:00:46.554Z,103607.16
2019-03-28T07:01:46.876Z,103607.05
2019-03-28T07:02:47.253Z,103607.25
2019-03-28T07:03:47.607Z,103607.05
2019-03-28T07:04:46.972Z,103607.34
2019-03-28T07:05:48.399Z,103607.48
2019-03-28T07:06:47.628Z,103608.11
2019-03-28T07:07:49.010Z,103608.50
2019-03-28T07:08:49.604Z,103608.72
2019-03-28T07:09:50.016Z,103609.58
2019-03-28T07:10:50.364Z,103610.17
2019-03-28T07:11:50.716Z,103610.09
2019-03-28T07:12:50.989Z,103610.04
2019-03-28T07:13:51.482Z,103609.72
2019-03-28T07:14:51.801Z,103608.88
2019-03-28T07:15:52.157Z,103608.92
2019-03-28T07:16:52.622Z,103608.27
2019-03-28T07:17:52.924Z,103607.91
2019-03-28T07:18:53.469Z,103607.31
2019-03-28T07:19:54.145Z,103606.57
2019-03-28T07:20:54.576Z,103605.97
2019-03-28T07:21:54.951Z,103605.47
2019-03-28T07:22:55.382Z,103605.48
2019-03-28T07:23:55.744Z,103605.38
2019-03-28T07:24:56.176Z,103605.42
2019-03-28T07:25:56.712Z,103604.83
2019-03-28T07:26:57.521Z,103604.98
2019-03-28T07:27:57.942Z,103605.05
2019-03-28T07:28:59.376Z,103604.94
2019-03-28T07:29:57.619Z,103603.98
2019-03-28T07:30:58.984Z,103603.88
2019-03-28T07:31:58.335Z,103603.13
2019-03-28T07:32:58.647Z,103602.73
2019-03-28T07:34:00.089Z,103601.61
2019-03-28T07:35:00.649Z,103600.98
2019-03-28T07:36:01.049Z,103600.45
2019-03-28T07:37:01.339Z,103600.07
2019-03-28T07:38:01.786Z,103599.64
2019-03-28T07:39:02.059Z,103598.44
2019-03-28T07:40:02.396Z,103598.14
2019-03-28T07:41:02.830Z,103597.73
2019-03-28T07:41:11.364Z,103586.89
2019-03-28T07:42:12.907Z,103586.56
2019-03-28T07:43:13.446Z,103586.47
2019-03-28T07:44:13.990Z,103586.70
2019-03-28T07:45:14.526Z,103585.97
2019-03-28T07:46:14.959Z,103585.63
2019-03-28T07:47:15.251Z,103584.91
2019-03-28T07:48:15.567Z,103585.10
2019-03-28T07:49:15.982Z,103584.79
2019-03-28T07:50:16.291Z,103584.53
2019-03-28T07:51:16.652Z,103584.31
2019-03-28T07:52:19.954Z,103584.39
2019-03-28T07:53:19.588Z,103583.73
2019-03-28T07:54:16.630Z,103583.86
2019-03-28T07:55:17.878Z,103583.76
2019-03-28T07:56:18.198Z,103583.33
2019-03-28T07:57:18.487Z,103583.06
2019-03-28T07:58:18.957Z,103582.27
2019-03-28T07:59:19.707Z,103581.40
2019-03-28T08:00:20.069Z,103581.09
2019-03-28T08:01:20.570Z,103579.95
2019-03-28T08:02:20.951Z,103579.30
2019-03-28T08:03:21.496Z,103578.75
2019-03-28T08:04:22.089Z,103578.30
2019-03-28T08:05:21.787Z,103577.73
2019-03-28T08:06:23.294Z,103576.70
2019-03-28T08:07:24.269Z,103575.39
2019-03-28T08:08:24.643Z,103574.66
2019-03-28T08:09:36.091Z,103573.55
2019-03-28T08:10:24.925Z,103572.78
2019-03-28T08:11:26.502Z,103572.19
2019-03-28T08:12:25.759Z,103571.04
2019-03-28T08:13:27.310Z,103571.03
2019-03-28T08:14:27.697Z,103570.58
2019-03-28T08:15:28.263Z,103570.41
2019-03-28T08:16:29.093Z,103569.58
2019-03-28T08:17:28.028Z,103568.86
2019-03-28T08:18:29.423Z,103569.02
2019-03-28T08:19:29.853Z,103568.80
2019-03-28T08:20:30.338Z,103569.06
2019-03-28T08:21:30.795Z,103568.20
2019-03-28T08:22:31.264Z,103567.55
2019-03-28T08:23:35.059Z,103567.11
2019-03-28T08:24:31.376Z,103567.05
2019-03-28T08:25:31.768Z,103566.56
2019-03-28T08:26:33.221Z,103565.63
2019-03-28T08:27:33.819Z,103565.06
2019-03-28T08:28:34.548Z,103564.06
2019-03-28T08:29:35.102Z,103563.75
2019-03-28T08:30:35.645Z,103562.89
2019-03-28T08:31:36.389Z,103562.39
2019-03-28T08:31:45.402Z,103553.07
2019-03-28T08:32:46.813Z,103552.89
2019-03-28T08:33:47.356Z,103552.90
2019-03-28T08:34:46.959Z,103552.47
2019-03-28T08:35:48.482Z,103552.62
2019-03-28T08:36:49.051Z,103553.03
2019-03-28T08:37:49.568Z,103552.77
2019-03-28T08:38:53.313Z,103553.69
2019-03-28T08:39:50.589Z,103553.77
2019-03-28T08:40:51.683Z,103554.12
2019-03-28T08:41:51.376Z,103554.49
2019-03-28T08:42:51.997Z,103554.78
2019-03-28T08:43:52.372Z,103555.06
2019-03-28T08:44:52.763Z,103555.53
2019-03-28T08:45:56.148Z,103555.86
2019-03-28T08:46:53.648Z,103556.42
2019-03-28T08:47:53.433Z,103556.38
2019-03-28T08:48:54.495Z,103556.78
2019-03-28T08:49:54.993Z,103557.33
2019-03-28T08:50:55.673Z,103557.10
2019-03-28T08:51:56.054Z,103557.27
2019-03-28T08:52:56.802Z,103557.17
2019-03-28T08:53:56.829Z,103557.09
2019-03-28T08:54:57.419Z,103557.17
2019-03-28T08:55:58.109Z,103557.19
2019-03-28T08:56:58.883Z,103557.19
2019-03-28T08:57:59.516Z,103556.97
2019-03-28T08:59:00.071Z,103557.09
2019-03-28T09:00:00.802Z,103556.79
2019-03-28T09:01:01.391Z,103556.29
2019-03-28T09:02:04.905Z,103556.44
2019-03-28T09:03:01.798Z,103556.13
2019-03-28T09:04:03.685Z,103555.99
2019-03-28T09:05:03.258Z,103555.89
2019-03-28T09:06:04.931Z,103555.91
2019-03-28T09:07:05.666Z,103556.05
2019-03-28T09:08:06.409Z,103555.47
2019-03-28T09:09:07.083Z,103555.02
2019-03-28T09:10:07.745Z,103554.91
2019-03-28T09:11:08.248Z,103554.84
2019-03-28T09:12:08.821Z,103554.20
2019-03-28T09:13:09.492Z,103554.08
2019-03-28T09:14:09.995Z,103554.07
2019-03-28T09:15:10.517Z,103554.66
2019-03-28T09:16:11.416Z,103555.47
2019-03-28T09:17:12.370Z,103555.22
2019-03-28T09:18:12.996Z,103556.04
2019-03-28T09:18:22.453Z,103559.45
2019-03-28T09:19:22.950Z,103559.05
2019-03-28T09:20:24.811Z,103559.50
2019-03-28T09:21:25.414Z,103559.66
2019-03-28T09:22:25.984Z,103559.53
2019-03-28T09:23:26.651Z,103560.05
2019-03-28T09:24:27.242Z,103559.42
2019-03-28T09:25:28.253Z,103559.42
2019-03-28T09:26:27.914Z,103559.22
2019-03-28T09:27:29.570Z,103559.37
2019-03-28T09:28:30.105Z,103559.75
2019-03-28T09:29:30.758Z,103559.80
2019-03-28T09:30:31.368Z,103559.70
2019-03-28T09:31:30.620Z,103560.05
2019-03-28T09:32:32.367Z,103559.79
2019-03-28T09:33:33.304Z,103559.33
2019-03-28T09:34:33.965Z,103559.14
2019-03-28T09:35:34.796Z,103558.57
2019-03-28T09:36:34.279Z,103557.70
2019-03-28T09:37:35.999Z,103557.16
2019-03-28T09:38:36.476Z,103556.41
2019-03-28T09:39:37.038Z,103555.97
2019-03-28T09:40:37.564Z,103555.32
2019-03-28T09:41:38.353Z,103554.98
2019-03-28T09:42:38.910Z,103553.80
2019-03-28T09:43:39.471Z,103553.10
2019-03-28T09:44:39.585Z,103552.60
2019-03-28T09:45:40.151Z,103551.66
2019-03-28T09:46:40.761Z,103551.25
2019-03-28T09:47:41.482Z,103550.77
2019-03-28T09:48:42.320Z,103550.14
2019-03-28T09:49:41.823Z,103549.89
2019-03-28T09:50:42.337Z,103550.03
2019-03-28T09:51:43.925Z,103549.92
2019-03-28T09:52:44.588Z,103549.63
2019-03-28T09:53:45.208Z,103549.84
2019-03-28T09:54:45.691Z,103549.12
2019-03-28T09:55:46.233Z,103549.47
2019-03-28T09:56:46.945Z,103549.14
2019-03-28T09:57:47.665Z,103549.42
2019-03-28T09:58:48.294Z,103549.28
2019-03-28T09:59:48.937Z,103549.17
2019-03-28T10:01:02.007Z,103549.14
2019-03-28T10:01:49.026Z,103549.67
2019-03-28T10:02:50.661Z,103549.04
2019-03-28T10:03:51.560Z,103549.00
2019-03-28T10:04:52.161Z,103548.86
2019-03-28T10:05:51.763Z,103548.64
2019-03-28T10:06:53.222Z,103548.39
2019-03-28T10:07:01.746Z,103544.62
2019-03-28T10:08:03.403Z,103544.19
2019-03-28T10:09:03.061Z,103544.47
2019-03-28T10:10:05.370Z,103544.30
2019-03-28T10:11:04.243Z,103544.47
2019-03-28T10:12:05.915Z,103543.98
2019-03-28T10:13:06.493Z,103543.98
2019-03-28T10:14:07.044Z,103544.09
2019-03-28T10:15:07.546Z,103543.67
2019-03-28T10:16:08.209Z,103544.00
2019-03-28T10:17:08.814Z,103544.06
2019-03-28T10:18:09.283Z,103544.23
2019-03-28T10:19:09.976Z,103544.52
2019-03-28T10:20:10.457Z,103544.45
2019-03-28T10:21:11.038Z,103544.27
2019-03-28T10:22:11.604Z,103543.89
2019-03-28T10:23:12.514Z,103543.84
2019-03-28T10:24:11.643Z,103543.83
2019-03-28T10:25:12.761Z,103544.05
2019-03-28T10:26:11.672Z,103543.29
2019-03-28T10:27:13.429Z,103543.00
2019-03-28T10:28:14.129Z,103542.70
2019-03-28T10:29:14.940Z,103542.87
2019-03-28T10:30:15.560Z,103542.60
2019-03-28T10:31:16.997Z,103542.70
2019-03-28T10:32:15.532Z,103542.69
2019-03-28T10:33:17.339Z,103542.14
2019-03-28T10:34:17.790Z,103541.98
2019-03-28T10:35:18.505Z,103541.34
2019-03-28T10:36:19.082Z,103541.54
2019-03-28T10:37:19.666Z,103541.10
2019-03-28T10:38:20.270Z,103540.95
2019-03-28T10:39:20.796Z,103540.45
2019-03-28T10:40:21.390Z,103539.68
2019-03-28T10:41:22.084Z,103538.91
2019-03-28T10:42:23.018Z,103538.40
2019-03-28T10:43:23.901Z,103537.89
2019-03-28T10:44:23.948Z,103537.52
2019-03-28T10:45:24.619Z,103536.80
2019-03-28T10:46:25.294Z,103535.84
2019-03-28T10:47:25.864Z,103535.55
2019-03-28T10:48:26.498Z,103534.80
2019-03-28T10:49:27.143Z,103533.68
2019-03-28T10:50:40.169Z,103533.11
2019-03-28T10:51:26.751Z,103532.87
2019-03-28T10:52:28.272Z,103532.51
2019-03-28T10:53:30.237Z,103532.38
2019-03-28T10:54:28.488Z,103531.73
2019-03-28T10:55:30.012Z,103530.90
2019-03-28T10:56:30.605Z,103530.41
2019-03-28T10:56:51.011Z,103524.66
2019-03-28T10:57:40.022Z,103524.06
2019-03-28T10:58:41.847Z,103523.83
2019-03-28T10:59:42.118Z,103523.75
2019-03-28T11:00:42.757Z,103523.00
2019-03-28T11:01:50.202Z,103523.10
2019-03-28T11:02:43.015Z,103522.73
2019-03-28T11:03:44.743Z,103522.47
2019-03-28T11:04:45.351Z,103522.59
2019-03-28T11:05:45.885Z,103522.45
2019-03-28T11:06:46.463Z,103522.21
2019-03-28T11:07:47.010Z,103521.98
2019-03-28T11:08:47.808Z,103522.06
2019-03-28T11:09:47.800Z,103521.32
2019-03-28T11:10:48.422Z,103520.64
2019-03-28T11:11:48.952Z,103519.64
2019-03-28T11:12:49.543Z,103518.89
2019-03-28T11:13:50.109Z,103518.14
2019-03-28T11:14:50.626Z,103517.11
2019-03-28T11:15:51.247Z,103516.20
2019-03-28T11:16:51.878Z,103515.48
2019-03-28T11:17:52.469Z,103513.54